LFPB/LBG METAR and TAF weather

Enter ICAO airport designator
Station Type Date Time Source
LFPB METAR 2021/09/25 13:30 UTC NOAA

LFPB 251330Z AUTO VRB02KT CAVOK 24/13 Q1013 NOSIG


Station Type Date Time Source
LFPB Decoded METAR 2021/09/25 13:30 UTC NOAA

Paris / Le Bourget, France (LFPB) 48-58N 002-27E 65M
Sep 25, 2021 - 09:30 AM EDT / 2021.09.25 1330 UTC
Wind: Variable at 2 MPH (2 KT):0
Visibility: greater than 7 mile(s):0
Temperature: 75 F (24 C)
Dew Point: 55 F (13 C)
Relative Humidity: 50%
Pressure (altimeter): 29.91 in. Hg (1013 hPa)
ob: LFPB 251330Z AUTO VRB02KT CAVOK 24/13 Q1013 NOSIG
cycle: 13

Station Type Date Time Source
LFPB TAF 2021/09/25 12:46 UTC NOAA

TAF LFPB 251100Z 2512/2612 09005KT CAVOK PROB40
TEMPO 2517/2521 SCT030TCU PROB30
TEMPO 2520/2521 4000 TSRA SCT030CB PROB40
TEMPO 2602/2610 4000 BR BKN008 PROB30 2604/2607 0800 BCFG BKN005

Example: see airport list